createdAt,value
2019-04-29T00:04:20.151Z,15.60
2019-04-29T00:09:36.276Z,15.50
2019-04-29T00:14:58.857Z,15.40
2019-04-29T00:20:23.756Z,15.40
2019-04-29T00:25:40.752Z,15.30
2019-04-29T00:30:56.536Z,15.30
2019-04-29T00:36:12.270Z,15.20
2019-04-29T00:41:44.473Z,15.10
2019-04-29T00:47:00.113Z,15.00
2019-04-29T00:52:15.781Z,15.00
2019-04-29T00:57:31.448Z,14.90
2019-04-29T01:02:47.097Z,14.80
2019-04-29T01:08:03.282Z,14.80
2019-04-29T01:13:19.278Z,14.70
2019-04-29T01:18:35.077Z,14.60
2019-04-29T01:23:50.826Z,14.60
2019-04-29T01:29:07.558Z,14.50
2019-04-29T01:34:28.341Z,14.40
2019-04-29T01:39:49.559Z,14.40
2019-04-29T01:45:05.548Z,14.30
2019-04-29T01:50:21.259Z,14.20
2019-04-29T01:55:37.048Z,14.10
2019-04-29T02:00:52.794Z,14.00
2019-04-29T02:06:08.533Z,14.00
2019-04-29T02:11:24.586Z,13.90
2019-04-29T02:16:40.594Z,13.90
2019-04-29T02:22:19.822Z,13.80
2019-04-29T02:27:35.458Z,13.80
2019-04-29T02:32:51.227Z,13.70
2019-04-29T02:38:08.690Z,13.60
2019-04-29T02:43:27.329Z,13.60
2019-04-29T02:48:43.435Z,13.50
2019-04-29T02:53:59.076Z,13.50
2019-04-29T02:59:17.383Z,13.40
2019-04-29T03:04:40.265Z,13.30
2019-04-29T03:09:56.497Z,13.30
2019-04-29T03:15:13.064Z,13.30
2019-04-29T03:20:34.676Z,13.20
2019-04-29T03:25:50.500Z,13.10
2019-04-29T03:31:06.610Z,13.10
2019-04-29T03:36:22.672Z,13.10
2019-04-29T03:41:38.282Z,13.00
2019-04-29T03:46:53.987Z,13.00
2019-04-29T03:52:10.312Z,12.90
2019-04-29T03:57:26.285Z,12.90
2019-04-29T04:03:06.065Z,12.80
2019-04-29T04:08:26.655Z,12.80
2019-04-29T04:13:42.059Z,12.80
2019-04-29T04:19:08.985Z,12.70
2019-04-29T04:24:24.966Z,12.70
2019-04-29T04:29:41.000Z,12.70
2019-04-29T04:34:56.782Z,12.60
2019-04-29T04:40:15.115Z,12.50
2019-04-29T04:45:31.064Z,12.50
2019-04-29T04:50:46.681Z,12.50
2019-04-29T04:56:02.793Z,12.50
2019-04-29T05:01:18.395Z,12.40
2019-04-29T05:06:35.156Z,12.40
2019-04-29T05:11:50.983Z,12.40
2019-04-29T05:17:06.745Z,12.40
2019-04-29T05:22:24.220Z,12.30
2019-04-29T05:27:39.902Z,12.30
2019-04-29T05:32:55.714Z,12.30
2019-04-29T05:38:30.422Z,12.30
2019-04-29T05:43:59.069Z,12.20
2019-04-29T05:49:20.111Z,12.20
2019-04-29T05:54:36.433Z,12.20
2019-04-29T05:59:52.353Z,12.10
2019-04-29T06:05:08.334Z,12.10
2019-04-29T06:10:24.794Z,12.10
2019-04-29T06:15:40.789Z,12.10
2019-04-29T06:21:08.356Z,12.10
2019-04-29T06:26:14.473Z,12.00
2019-04-29T06:31:30.193Z,12.10
2019-04-29T06:36:46.963Z,12.10
2019-04-29T06:42:02.533Z,12.00
2019-04-29T06:47:18.484Z,12.00
2019-04-29T06:52:34.937Z,12.00
2019-04-29T06:57:50.670Z,12.00
2019-04-29T07:03:06.452Z,12.00
2019-04-29T07:08:23.705Z,12.00
2019-04-29T07:13:39.302Z,12.10
2019-04-29T07:18:55.242Z,12.10
2019-04-29T07:24:10.790Z,12.10
2019-04-29T07:29:30.772Z,12.10
2019-04-29T07:34:43.923Z,12.10
2019-04-29T07:40:03.694Z,12.10
2019-04-29T07:45:44.251Z,12.10
2019-04-29T07:51:04.240Z,12.20
2019-04-29T07:56:17.803Z,12.20
2019-04-29T08:01:33.406Z,12.20
2019-04-29T08:06:49.246Z,12.20
2019-04-29T08:12:05.905Z,12.20
2019-04-29T08:17:21.607Z,12.30
2019-04-29T08:22:37.490Z,12.30
2019-04-29T08:27:53.210Z,12.30
2019-04-29T08:33:11.923Z,12.40
2019-04-29T08:38:26.426Z,12.40
2019-04-29T08:44:15.666Z,12.40
2019-04-29T08:49:24.516Z,12.50
2019-04-29T08:54:40.568Z,12.50
2019-04-29T08:59:56.303Z,12.60
2019-04-29T09:05:13.352Z,12.60
2019-04-29T09:10:33.108Z,12.60
2019-04-29T09:15:46.905Z,12.70
2019-04-29T09:21:02.696Z,12.70
2019-04-29T09:26:33.415Z,12.80
2019-04-29T09:31:49.387Z,12.80
2019-04-29T09:37:05.210Z,12.90
2019-04-29T09:42:45.505Z,13.00
2019-04-29T09:48:00.616Z,13.00
2019-04-29T09:53:16.285Z,13.10
2019-04-29T09:58:31.743Z,13.20
2019-04-29T10:04:12.665Z,13.20
2019-04-29T10:09:28.306Z,13.30
2019-04-29T10:14:46.345Z,13.30
2019-04-29T10:20:08.185Z,13.50
2019-04-29T10:25:23.903Z,13.50
2019-04-29T10:30:40.143Z,13.60
2019-04-29T10:35:55.795Z,13.60
2019-04-29T10:41:23.933Z,13.70
2019-04-29T10:46:57.494Z,13.80
2019-04-29T10:52:13.566Z,13.90
2019-04-29T10:57:29.608Z,14.00
2019-04-29T11:02:49.286Z,14.00
2019-04-29T11:08:17.375Z,14.10
2019-04-29T11:13:33.158Z,14.20
2019-04-29T11:18:49.144Z,14.20
2019-04-29T11:24:20.651Z,14.30
2019-04-29T11:29:36.299Z,14.40
2019-04-29T11:35:01.423Z,14.50
2019-04-29T11:40:26.089Z,14.60
2019-04-29T11:45:40.397Z,14.60
2019-04-29T11:51:01.314Z,14.70
2019-04-29T11:56:18.626Z,14.80
2019-04-29T12:01:53.524Z,14.90
2019-04-29T12:07:10.025Z,14.90
2019-04-29T12:12:25.882Z,15.10
2019-04-29T12:17:57.231Z,15.20
2019-04-29T12:23:15.673Z,15.20
2019-04-29T12:28:30.835Z,15.30
2019-04-29T12:33:55.609Z,15.40
2019-04-29T12:39:42.815Z,15.50
2019-04-29T12:44:52.431Z,15.50
2019-04-29T12:50:08.817Z,15.60
2019-04-29T12:55:44.313Z,15.80
2019-04-29T13:00:56.163Z,15.80
2019-04-29T13:06:23.256Z,15.90
2019-04-29T13:11:45.455Z,16.00
2019-04-29T13:17:13.636Z,16.10
2019-04-29T13:22:18.217Z,16.20
2019-04-29T13:27:33.858Z,16.20
2019-04-29T13:32:49.681Z,16.30
2019-04-29T13:38:05.784Z,16.40
2019-04-29T13:43:25.849Z,16.50
2019-04-29T13:49:06.897Z,16.50
2019-04-29T13:54:16.532Z,16.60
2019-04-29T13:59:42.061Z,16.70
2019-04-29T14:05:00.146Z,16.80
2019-04-29T14:10:17.841Z,16.90
2019-04-29T14:15:38.315Z,16.90
2019-04-29T14:20:53.169Z,17.00
2019-04-29T14:26:08.877Z,17.10
2019-04-29T14:31:24.921Z,17.10
2019-04-29T14:36:40.957Z,17.10
2019-04-29T14:42:02.169Z,17.00
2019-04-29T14:47:34.044Z,17.10
2019-04-29T14:52:50.718Z,17.00
2019-04-29T14:58:07.003Z,17.00
2019-04-29T15:03:23.913Z,17.00
2019-04-29T15:08:39.897Z,17.00
2019-04-29T15:14:01.574Z,17.00
2019-04-29T15:19:34.718Z,16.90
2019-04-29T15:24:50.466Z,16.90
2019-04-29T15:30:08.959Z,16.90
2019-04-29T15:35:25.573Z,16.90
2019-04-29T15:40:42.995Z,16.90
2019-04-29T15:45:59.147Z,16.80
2019-04-29T15:51:14.954Z,16.80
2019-04-29T15:56:33.779Z,16.80
2019-04-29T16:01:49.326Z,16.80
2019-04-29T16:07:22.271Z,16.80
2019-04-29T16:12:45.414Z,16.80
2019-04-29T16:18:05.076Z,16.80
2019-04-29T16:23:18.325Z,16.70
2019-04-29T16:28:39.959Z,16.70
2019-04-29T16:33:54.543Z,16.70
2019-04-29T16:39:10.218Z,16.60
2019-04-29T16:44:35.758Z,16.60
2019-04-29T16:49:45.672Z,16.60
2019-04-29T16:55:04.179Z,16.60
2019-04-29T17:00:22.942Z,16.60
2019-04-29T17:05:38.650Z,16.50
2019-04-29T17:11:12.133Z,16.50
2019-04-29T17:16:25.222Z,16.50
2019-04-29T17:21:44.274Z,16.40
2019-04-29T17:27:18.890Z,16.40
2019-04-29T17:32:48.498Z,16.40
2019-04-29T17:38:04.043Z,16.30
2019-04-29T17:43:45.200Z,16.30
2019-04-29T17:49:13.759Z,16.30
2019-04-29T17:54:34.901Z,16.20
2019-04-29T18:00:08.751Z,16.20
2019-04-29T18:05:52.201Z,16.20
2019-04-29T18:10:55.759Z,16.10
2019-04-29T18:16:19.034Z,16.10
2019-04-29T18:21:48.099Z,16.00
2019-04-29T18:27:07.095Z,16.00
2019-04-29T18:32:33.482Z,15.90
2019-04-29T18:37:40.903Z,15.90
2019-04-29T18:42:56.626Z,15.80
2019-04-29T18:48:17.033Z,15.80
2019-04-29T18:53:29.367Z,15.80
2019-04-29T18:58:46.819Z,15.70
2019-04-29T19:04:30.756Z,15.70
2019-04-29T19:09:47.378Z,15.60
2019-04-29T19:15:05.051Z,15.60
2019-04-29T19:20:22.268Z,15.60
2019-04-29T19:25:41.636Z,15.50
2019-04-29T19:31:02.902Z,15.50
2019-04-29T19:36:18.458Z,15.40
2019-04-29T19:41:31.264Z,15.40
2019-04-29T19:46:47.230Z,15.30
2019-04-29T19:52:03.201Z,15.30
2019-04-29T19:57:19.106Z,15.20
2019-04-29T20:08:06.072Z,15.20
2019-04-29T20:13:30.535Z,15.10
2019-04-29T20:19:01.550Z,15.10
2019-04-29T20:24:17.900Z,15.00
2019-04-29T20:29:34.383Z,14.90
2019-04-29T20:34:50.630Z,14.90
2019-04-29T20:40:07.744Z,14.90
2019-04-29T20:45:28.784Z,14.80
2019-04-29T20:50:47.716Z,14.80
2019-04-29T20:56:09.572Z,14.70
2019-04-29T21:01:29.850Z,14.70
2019-04-29T21:06:59.081Z,14.60
2019-04-29T21:12:20.619Z,14.50
2019-04-29T21:17:40.379Z,14.50
2019-04-29T21:22:59.323Z,14.50
2019-04-29T21:28:18.976Z,14.40
2019-04-29T21:33:35.495Z,14.40
2019-04-29T21:39:01.760Z,14.30
2019-04-29T21:44:19.400Z,14.30
2019-04-29T21:49:45.411Z,14.20
2019-04-29T21:55:00.970Z,14.20
2019-04-29T22:00:24.458Z,14.10
2019-04-29T22:05:41.394Z,14.10
2019-04-29T22:10:58.125Z,14.00
2019-04-29T22:16:15.829Z,14.00
2019-04-29T22:21:32.486Z,14.00
2019-04-29T22:26:48.232Z,13.90
2019-04-29T22:32:09.215Z,13.90
2019-04-29T22:37:22.907Z,13.90
2019-04-29T22:42:45.666Z,13.80
2019-04-29T22:48:14.209Z,13.80
2019-04-29T22:53:18.812Z,13.70
2019-04-29T22:58:35.084Z,13.70
2019-04-29T23:03:51.368Z,13.70
2019-04-29T23:09:12.057Z,13.60
2019-04-29T23:14:27.099Z,13.60
2019-04-29T23:19:46.498Z,13.60
2019-04-29T23:25:05.882Z,13.50
2019-04-29T23:30:27.347Z,13.50
2019-04-29T23:35:44.792Z,13.50
2019-04-29T23:41:00.882Z,13.40
2019-04-29T23:46:16.803Z,13.40
2019-04-29T23:51:34.255Z,13.40
2019-04-29T23:57:16.280Z,13.40
